Date,TemperatureHighF,TemperatureAvgF,TemperatureLowF,DewpointHighF,DewpointAvgF,DewpointLowF,HumidityHigh,HumidityAvg,HumidityLow,PressureMaxIn,PressureMinIn,WindSpeedMaxMPH,WindSpeedAvgMPH,GustSpeedMaxMPH,PrecipitationSumIn
2014-1-1,52.3,36.5,24.8,10.1,3.4,-4.2,51,28,13,29.59,29.29,12,3,12,0.00
2014-1-2,41.5,31.5,15.8,26.9,6.2,-14.6,59,35,18,29.50,29.03,23,7,23,0.16
2014-1-3,24.4,16.6,9.1,-11.6,-15.9,-20.3,29,22,19,29.74,29.50,14,4,14,0.00
2014-1-4,47.5,31.6,14.2,4.0,-5.9,-16.6,37,20,14,29.53,29.35,15,5,17,0.00
2014-1-5,58.6,45.1,28.0,24.3,12.2,-2.5,58,28,14,29.35,28.79,25,8,27,0.31
2014-1-6,32.9,9.8,-1.1,20.4,-14.1,-25.7,60,32,29,29.71,29.00,25,10,25,0.00
2014-1-7,15.1,4.8,-3.1,-12.6,-22.3,-27.4,29,27,21,29.80,29.65,17,4,17,0.00
2014-1-8,36.1,21.3,5.9,-0.1,-12.9,-24.8,33,21,17,29.77,29.65,8,3,8,0.04
2014-1-9,43.0,33.7,23.7,16.5,0.3,-8.5,45,25,15,29.74,29.53,15,4,15,0.04
2014-1-10,58.1,45.5,36.1,37.0,21.6,0.2,65,40,18,29.53,29.09,13,6,13,0.08
2014-1-11,61.9,52.2,39.4,40.4,17.7,0.6,58,28,13,29.15,28.85,21,8,21,0.71
2014-1-12,56.3,45.0,37.4,11.7,6.1,-0.2,33,21,12,29.35,29.15,11,4,11,0.00
2014-1-13,56.5,51.5,46.9,29.9,13.9,0.2,46,25,12,29.26,29.03,26,6,26,0.24
2014-1-14,54.7,47.4,37.4,31.0,15.2,-0.1,56,32,13,29.23,29.06,22,4,232,0.08
2014-1-15,37.4,32.0,23.5,18.4,-2.8,-11.1,46,23,18,29.38,29.21,15,5,15,0.00
2014-1-16,39.9,31.4,22.5,8.0,-3.2,-9.9,34,23,16,29.32,29.09,15,4,15,0.00
2014-1-17,38.7,30.2,19.6,18.1,2.0,-15.0,50,31,19,29.35,29.09,26,6,26,0.00
2014-1-18,38.8,26.6,18.1,-3.5,-10.2,-16.2,23,19,16,29.38,29.09,15,5,15,0.00
2014-1-19,42.4,38.4,32.7,16.2,-0.4,-4.7,46,20,16,29.29,29.06,90,6,90,0.00
2014-1-20,54.9,45.0,34.3,8.4,1.2,-3.2,33,16,13,29.18,29.09,15,4,15,0.00
2014-1-21,37.9,23.9,8.6,16.9,0.2,-22.4,52,36,21,29.44,29.00,17,4,17,0.00
2014-1-22,19.9,10.5,-1.8,-14.7,-21.4,-31.4,22,21,20,29.44,29.29,8,2,8,0.04
2014-1-23,21.6,12.1,0.7,-8.6,-19.6,-29.2,27,22,20,29.88,29.38,20,6,20,0.00
2014-1-24,27.0,12.1,-4.5,-10.2,-20.8,-33.7,22,21,18,29.91,29.23,17,3,17,0.04
2014-1-25,39.6,29.0,20.8,6.0,-5.6,-13.9,44,23,16,29.23,28.91,24,8,24,0.04
2014-1-26,55.6,37.3,12.7,5.2,-4.9,-18.9,22,16,12,29.23,28.88,22,5,22,0.00
2014-1-27,52.2,26.5,12.2,4.0,-10.8,-19.4,22,19,13,29.62,28.94,24,7,24,0.00
2014-1-28,13.3,9.4,5.0,-18.4,-21.8,-25.5,22,22,22,29.68,29.56,12,4,12,0.00
2014-1-29,24.8,11.5,-1.3,-11.6,-20.8,-30.9,22,21,19,29.68,29.59,8,2,8,0.00
2014-1-30,41.2,24.6,5.0,-1.6,-12.4,-25.5,22,19,16,29.59,29.26,15,5,15,0.00
2014-1-31,43.3,39.1,34.3,-0.4,-3.2,-5.9,17,16,15,29.44,29.32,13,3,13,0.00
2014-2-1,67.5,53.5,37.9,13.8,5.5,-4.2,16,14,12,29.32,29.18,17,6,17,0.00
2014-2-2,56.8,44.1,33.8,39.7,22.4,8.7,64,46,15,29.41,29.18,17,4,17,1.10
2014-2-3,34.2,31.1,28.9,20.4,12.8,8.5,58,47,37,29.56,29.23,8,0,8,0.39
2014-2-4,34.5,32.7,30.6,21.0,14.3,11.4,59,46,41,29.56,29.12,12,2,12,0.04
2014-2-5,39.9,32.1,25.3,26.3,11.4,-2.6,65,43,25,29.62,28.97,20,7,20,0.00
2014-2-6,27.3,25.7,24.3,6.4,-0.3,-8.7,43,33,21,29.71,29.59,11,4,232,0.00
2014-2-7,26.1,22.1,19.4,-1.0,-5.7,-11.4,37,29,21,29.71,29.59,10,3,10,0.00
2014-2-8,34.9,27.8,19.6,8.7,2.1,-2.5,45,33,22,29.59,29.38,9,2,9,0.00
2014-2-9,34.3,32.4,27.9,20.9,11.2,-0.8,58,42,25,29.47,29.32,12,1,12,0.04
2014-2-10,27.9,23.3,15.4,11.3,-5.2,-16.5,51,29,18,29.62,29.44,0,0,0,0.04
2014-2-11,32.7,19.8,9.1,-6.1,-10.4,-14.4,39,26,18,29.68,29.59,11,2,11,0.00
2014-2-12,39.4,27.6,17.8,-3.1,-9.6,-16.5,20,19,16,29.59,29.21,10,3,10,0.00
2014-2-13,44.8,34.8,27.5,0.0,-4.6,-8.9,26,18,15,29.21,29.00,12,3,12,0.00
2014-2-14,52.5,42.7,36.7,21.5,3.7,-4.7,49,21,13,29.06,28.88,13,4,13,0.55
2014-2-15,37.2,25.4,21.6,20.3,-2.4,-10.9,53,30,18,29.41,28.91,17,6,17,0.04
2014-2-16,39.9,32.7,25.9,9.4,1.8,-5.3,46,28,18,29.50,29.26,13,4,13,0.04
2014-2-17,58.6,39.3,26.8,26.7,3.3,-5.3,36,23,12,29.53,29.03,31,8,31,0.04
2014-2-18,61.7,51.4,36.5,12.1,5.1,-4.7,30,15,12,29.44,29.15,25,6,25,0.00
2014-2-19,61.3,56.1,42.6,35.8,13.7,-0.5,46,20,12,29.32,29.06,23,5,25,0.20
2014-2-20,73.2,61.2,43.3,27.6,10.0,-0.8,29,13,11,29.29,28.88,27,9,27,0.00
2014-2-21,60.3,45.9,32.9,34.4,8.4,-6.1,48,23,13,29.32,28.94,26,6,26,0.98
2014-2-22,66.2,49.0,32.9,13.8,2.7,-6.4,20,15,12,29.38,29.21,15,3,15,0.00
2014-2-23,56.7,45.8,33.3,16.4,5.0,-3.2,45,20,12,29.44,29.23,17,4,17,0.00
2014-2-24,41.2,31.7,23.7,11.0,-4.7,-10.4,39,21,16,29.56,29.44,14,3,14,0.00
2014-2-25,40.3,33.2,26.1,-2.3,-5.9,-11.0,23,18,16,29.47,29.32,13,3,13,0.00
2014-2-26,33.1,25.3,19.9,6.2,-6.8,-14.2,46,25,18,29.41,29.21,16,5,17,0.00
2014-2-27,36.3,27.0,19.9,-4.3,-10.2,-14.7,20,19,17,29.38,29.15,23,6,23,0.00
2014-2-28,45.5,29.9,16.9,0.6,-8.6,-16.5,21,18,15,29.50,29.32,13,4,13,0.00
2014-3-1,59.5,47.1,34.5,11.8,3.5,-5.8,30,17,12,29.47,29.35,13,3,13,0.00
2014-3-2,55.8,41.0,28.2,24.5,14.8,5.2,60,40,13,29.38,29.29,10,2,12,0.91
2014-3-3,28.2,19.6,9.7,10.3,-8.2,-21.5,47,29,19,29.62,29.32,0,0,0,0.00
2014-3-4,39.2,21.7,7.0,6.9,-10.5,-23.8,44,24,16,29.59,29.41,9,1,10,0.31
2014-3-5,47.7,34.3,24.6,13.4,3.1,-6.6,57,30,14,29.53,29.41,10,3,11,0.04
2014-3-6,49.8,38.1,29.3,7.4,-3.3,-8.9,32,17,14,29.50,29.32,10,3,10,0.00
2014-3-7,63.1,44.6,29.1,13.9,9.2,0.3,48,26,12,29.32,29.21,8,2,9,0.00
2014-3-8,62.4,47.5,31.3,26.6,13.0,3.7,56,29,12,29.35,29.26,15,4,15,0.00
2014-3-9,54.1,44.2,36.5,16.1,7.0,-1.7,40,23,13,29.53,29.32,15,4,15,0.00
2014-3-10,68.0,49.1,30.9,17.5,11.7,3.7,53,26,12,29.32,29.09,17,4,17,0.00
2014-3-11,76.1,61.9,43.3,22.6,12.1,2.4,39,15,10,29.09,28.88,15,4,15,0.00
2014-3-12,66.9,49.5,32.7,34.7,13.3,-3.9,42,25,12,29.23,28.59,31,8,34,0.12
2014-3-13,41.0,30.8,21.2,-1.7,-7.8,-13.6,20,18,16,29.50,29.23,17,5,17,0.00
2014-3-14,64.0,51.3,28.4,12.6,4.5,-9.7,18,15,12,29.44,29.18,22,7,22,0.00
2014-3-15,66.4,55.9,43.0,13.8,6.3,-1.5,16,13,12,29.38,29.23,20,4,20,0.00
2014-3-16,49.3,39.1,30.6,15.4,6.4,-2.5,49,28,14,29.29,29.12,18,4,18,0.24
2014-3-17,40.1,33.7,28.2,10.2,4.9,-0.1,37,30,21,29.18,29.06,8,1,8,0.20
2014-3-18,59.7,44.2,34.9,28.0,12.8,7.4,53,30,14,29.26,29.12,11,3,11,0.00
2014-3-19,60.4,53.8,44.6,32.8,12.0,4.1,56,20,14,29.29,29.12,24,7,24,0.00
2014-3-20,56.3,45.8,36.0,13.2,4.4,-2.0,30,19,12,29.44,29.29,13,4,13,0.00
2014-3-21,69.6,52.1,32.7,14.8,9.6,0.0,37,20,12,29.35,29.18,13,4,13,0.00
2014-3-22,62.8,57.8,45.5,12.6,8.1,-0.2,15,13,12,29.38,29.15,14,5,14,0.00
2014-3-23,45.9,41.1,33.3,0.8,-2.1,-6.2,18,16,15,29.56,29.38,14,4,15,0.00
2014-3-24,46.6,35.5,21.9,1.9,-4.0,-11.4,35,18,14,29.59,29.35,13,3,13,0.00
2014-3-25,37.8,33.1,28.9,17.4,4.0,-9.2,53,31,16,29.44,29.23,17,5,17,0.08
2014-3-26,43.9,30.9,20.5,-0.4,-7.2,-13.1,30,19,15,29.65,29.44,11,2,11,0.00
2014-3-27,64.2,48.2,28.2,12.6,2.5,-9.8,18,15,12,29.53,29.18,23,7,26,0.00
2014-3-28,70.2,61.9,54.9,33.9,17.1,3.7,41,18,12,29.29,29.15,26,6,26,0.08
2014-3-29,57.4,47.1,35.1,43.1,27.3,16.6,65,46,33,29.35,29.06,21,6,21,1.18
2014-3-30,56.5,42.7,34.0,23.1,5.3,-1.6,57,23,12,29.47,29.35,15,6,17,0.00
2014-3-31,70.9,51.3,30.6,19.5,11.7,2.6,52,24,12,29.50,29.26,12,3,13,0.00
2014-4-1,79.3,65.8,47.3,22.7,12.3,1.1,37,13,10,29.32,29.23,17,6,17,0.00
2014-4-2,81.0,62.7,44.2,27.7,15.6,7.2,45,18,9,29.38,29.23,11,3,11,0.00
2014-4-3,79.3,63.5,54.9,49.8,28.9,9.0,65,33,10,29.26,29.03,31,5,31,1.54
2014-4-4,70.0,61.9,46.9,44.7,21.6,4.1,55,23,12,29.29,28.91,28,8,28,0.35
2014-4-5,54.9,46.9,40.3,5.0,1.3,-1.6,18,15,13,29.44,29.29,13,5,13,0.00
2014-4-6,70.0,52.0,34.3,17.0,9.4,-1.1,47,20,12,29.41,29.18,13,3,13,0.00
2014-4-7,69.6,59.9,52.7,29.7,18.4,7.2,40,21,12,29.18,28.70,25,8,25,0.04
2014-4-8,61.0,53.2,46.0,28.0,14.0,6.5,42,23,14,29.12,28.91,20,5,20,0.00
2014-4-9,63.9,53.3,43.7,33.2,17.8,0.2,60,30,12,29.35,29.09,16,3,16,0.04
2014-4-10,78.3,59.6,37.0,17.9,13.6,2.5,43,19,10,29.41,29.21,20,5,20,0.00
2014-4-11,75.2,68.8,61.7,24.7,14.5,11.7,24,12,10,29.35,29.26,20,5,20,0.00
2014-4-12,82.9,68.3,49.5,42.4,22.4,13.4,54,22,9,29.44,29.23,20,4,20,0.00
2014-4-13,86.0,77.0,69.6,19.2,16.5,14.4,12,10,8,29.32,29.12,21,7,24,0.00
2014-4-14,75.9,72.2,59.7,32.0,15.5,13.1,35,11,10,29.12,28.94,22,8,22,0.00
2014-4-15,59.0,39.5,33.1,38.7,13.5,-4.7,68,39,16,29.53,29.00,18,6,18,0.51
2014-4-16,57.6,41.9,27.0,36.5,26.2,18.0,100,60,27,29.68,29.47,17,4,17,0.00
2014-4-17,73.0,54.0,35.6,35.7,26.5,15.5,81,36,24,29.68,29.50,13,4,13,0.00
2014-4-18,71.6,58.2,44.8,39.8,33.0,24.4,81,42,24,29.59,29.44,10,2,10,0.00
2014-4-19,76.6,61.7,44.6,49.5,36.3,27.3,100,47,21,29.50,29.41,17,3,17,0.00
2014-4-20,81.7,62.3,41.7,47.6,35.1,21.8,100,44,18,29.53,29.38,12,2,12,0.00
2014-4-21,80.1,64.3,46.0,54.3,38.2,28.4,100,48,21,29.38,29.18,13,2,13,0.00
2014-4-22,74.3,65.2,56.7,63.7,43.1,23.1,100,50,24,29.21,29.06,15,4,16,0.04
2014-4-23,63.3,52.8,40.6,33.0,24.8,17.9,51,34,27,29.35,29.21,15,3,15,0.00
2014-4-24,79.0,60.2,41.4,41.4,31.0,21.3,100,37,21,29.35,29.06,17,4,17,0.00
2014-4-25,68.4,61.5,50.0,63.7,44.4,28.4,100,60,27,29.23,28.97,21,5,21,0.67
2014-4-26,78.8,61.7,42.4,56.8,39.0,28.4,100,55,21,29.26,29.21,16,2,16,0.00
2014-4-27,88.0,67.9,47.8,50.6,37.8,28.7,100,43,15,29.26,29.09,12,4,12,0.00
2014-4-28,71.6,67.6,65.1,70.9,59.6,32.9,100,79,24,29.18,28.97,17,6,17,0.16
2014-4-29,83.1,67.5,55.6,66.6,51.0,32.8,100,68,18,29.21,28.88,21,5,21,1.26
2014-4-30,60.3,57.4,54.9,60.3,57.3,50.4,100,99,78,29.21,29.06,15,3,15,1.81
2014-5-1,62.4,55.8,48.7,55.0,38.3,22.0,100,58,27,29.26,29.18,12,3,13,0.00
2014-5-2,64.8,54.4,41.0,52.2,35.9,27.3,100,56,30,29.26,29.18,11,2,11,0.00
2014-5-3,71.8,58.4,41.0,47.5,36.8,27.6,100,53,24,29.26,29.15,22,4,22,0.00
2014-5-4,81.1,64.2,46.9,54.0,39.8,28.6,100,51,18,29.29,29.21,13,2,13,0.00
2014-5-5,87.6,70.9,55.2,56.6,35.2,28.4,100,32,15,29.26,29.06,17,4,17,0.00
2014-5-6,86.5,70.8,54.3,61.8,44.6,31.6,100,52,15,29.21,29.12,13,2,13,0.00
2014-5-7,88.3,71.8,55.8,61.7,43.4,31.4,100,48,15,29.35,29.21,13,3,13,0.00
2014-5-8,88.9,74.6,59.2,61.4,40.1,31.7,100,36,15,29.44,29.29,19,3,19,0.00
2014-5-9,78.4,70.8,63.5,68.3,50.5,32.9,90,53,21,29.35,29.23,17,4,17,0.00
2014-5-10,73.8,67.2,61.3,69.2,60.5,40.7,100,83,33,29.35,29.23,17,2,17,0.79
2014-5-11,87.1,71.4,57.6,69.3,49.4,31.6,100,58,15,29.41,29.29,10,3,10,0.00
2014-5-12,88.7,78.9,68.4,69.3,44.8,31.6,96,36,15,29.41,29.32,13,4,13,0.00
2014-5-13,87.3,75.9,66.4,69.5,52.8,31.6,100,55,15,29.38,29.32,13,4,13,0.00
2014-5-14,85.3,73.5,65.7,70.2,56.6,31.6,100,65,15,29.38,29.15,15,4,15,0.00
2014-5-15,69.1,57.2,52.0,66.9,51.8,32.7,100,85,42,29.35,29.09,17,4,17,0.51
2014-5-16,60.3,51.5,42.6,55.0,39.4,25.7,100,70,33,29.38,29.26,14,3,14,0.12
2014-5-17,63.1,50.5,37.0,50.2,34.3,21.7,100,62,27,29.53,29.38,13,2,13,0.12
2014-5-18,68.7,53.9,37.4,51.3,35.3,27.6,100,58,27,29.56,29.47,10,2,10,0.12
2014-5-19,75.9,58.6,40.5,49.8,37.2,28.4,100,55,21,29.56,29.41,9,2,9,0.12
2014-5-20,83.5,69.8,53.8,50.0,38.6,32.5,87,38,18,29.47,29.29,17,4,17,0.12
2014-5-21,82.9,72.7,59.9,65.6,44.5,32.9,100,42,18,29.35,29.23,27,4,27,0.91
2014-5-22,84.6,72.6,63.0,68.5,54.2,31.6,100,62,15,29.38,29.23,13,3,13,0.24
2014-5-23,76.5,69.1,56.8,63.9,41.5,30.8,100,44,21,29.41,29.32,12,2,12,0.00
2014-5-24,78.6,64.0,49.3,60.4,43.0,31.4,100,58,21,29.50,29.38,9,2,10,0.00
2014-5-25,82.2,65.7,51.1,61.9,44.8,31.3,100,59,18,29.44,29.35,8,2,8,0.00
2014-5-26,88.2,72.5,57.2,70.2,48.8,31.6,100,56,15,29.44,29.32,11,2,13,0.00
2014-5-27,88.0,76.4,66.6,73.4,50.7,31.7,100,54,15,29.35,29.23,13,2,13,0.00
2014-5-28,84.4,71.8,62.6,73.4,62.7,31.6,100,79,15,29.35,29.26,9,2,10,0.31
2014-5-29,86.0,73.1,63.9,70.7,56.6,31.6,100,68,15,29.35,29.26,9,2,9,0.00
2014-5-30,86.9,73.2,63.0,74.3,60.7,42.0,100,72,24,29.38,29.29,9,2,9,0.16
2014-5-31,84.6,73.1,59.2,66.2,43.7,31.6,100,43,15,29.44,29.35,13,3,13,0.00
2014-6-1,85.8,73.6,60.3,74.6,53.9,42.0,100,58,24,29.44,29.35,15,3,15,0.35
2014-6-2,81.7,75.1,70.0,70.5,44.7,32.6,100,37,18,29.47,29.32,11,3,11,0.00
2014-6-3,85.5,75.9,67.8,72.2,57.4,41.0,100,59,24,29.35,29.23,181,15,181,0.20
2014-6-4,75.0,75.0,75.0,62.9,62.9,62.9,66,66,66,29.23,29.23,181,181,181,0.00
2014-6-5,75.0,68.2,63.3,66.4,60.5,45.8,100,80,39,29.23,29.18,181,26,181,1.26
2014-6-6,81.7,69.1,58.5,64.3,48.5,32.6,100,60,18,29.29,29.21,9,2,10,0.00
2014-6-7,86.2,70.6,55.0,64.5,45.8,31.6,100,54,15,29.32,29.15,9,1,9,0.00
2014-6-8,76.8,71.2,64.6,66.0,54.4,40.1,100,60,30,29.26,29.06,19,4,19,0.00
2014-6-9,74.3,66.5,59.4,67.5,57.1,45.4,100,76,39,29.26,29.18,9,1,9,0.00
2014-6-10,87.1,72.3,63.0,71.2,56.4,31.6,100,71,15,29.21,29.09,17,4,17,1.18
2014-6-11,80.1,71.4,66.2,74.3,65.6,53.8,100,85,42,29.15,29.03,15,4,15,0.24
2014-6-12,81.7,71.8,63.9,70.7,55.2,33.2,100,66,18,29.18,29.09,13,2,13,0.00
2014-6-13,77.4,68.2,59.9,72.3,56.8,32.9,100,74,24,29.29,29.15,12,2,14,0.43
2014-6-14,79.9,65.6,52.2,61.5,45.1,31.4,100,59,21,29.38,29.29,8,2,8,0.00
2014-6-15,89.8,73.3,55.4,71.3,46.5,30.3,100,53,12,29.41,29.29,10,3,10,0.00
2014-6-16,91.8,78.3,64.4,72.9,51.3,30.3,100,55,12,29.47,29.35,8,2,8,0.00
2014-6-17,92.5,79.8,66.2,74.3,50.8,30.3,100,52,12,29.44,29.32,13,3,13,0.00
2014-6-18,92.5,80.4,67.8,75.1,53.7,30.3,100,55,12,29.41,29.29,12,2,12,0.00
2014-6-19,91.6,79.3,68.7,77.4,56.4,30.3,100,58,12,29.41,29.29,10,2,11,0.00
2014-6-20,91.8,77.2,68.7,77.4,63.2,30.7,100,74,12,29.35,29.21,24,3,24,0.12
2014-6-21,88.5,76.6,68.0,76.7,56.7,31.6,100,64,15,29.26,29.15,10,2,10,0.00
2014-6-22,93.4,77.5,64.6,72.2,52.4,26.0,100,56,9,29.23,29.15,8,2,8,0.00
2014-6-23,93.4,79.3,66.4,73.1,51.1,26.0,100,51,9,29.29,29.18,12,3,12,0.00
2014-6-24,85.8,78.6,72.9,76.3,54.1,41.4,100,46,24,29.29,29.18,16,5,16,0.16
2014-6-25,85.3,76.8,71.2,75.0,61.0,42.0,100,66,24,29.29,29.18,14,3,14,0.91
2014-6-26,88.2,80.7,72.0,75.9,49.4,31.6,100,40,15,339.32,29.23,8,2,8,0.00
2014-6-27,90.5,78.3,66.7,75.8,53.9,30.3,100,58,12,29.35,29.29,8,2,8,0.00
2014-6-28,84.7,75.1,71.1,75.4,70.1,49.4,100,87,30,29.44,29.35,10,3,10,0.00
2014-6-29,85.8,76.4,70.3,76.5,66.5,42.6,100,76,24,29.44,29.32,11,4,13,0.12
2014-6-30,87.4,78.2,70.5,73.6,62.2,43.2,100,66,24,29.35,29.18,13,3,13,0.00
2014-7-1,90.5,83.1,76.1,76.0,57.0,43.0,99,48,21,29.21,29.12,14,4,14,0.00
2014-7-2,88.0,77.2,68.7,72.7,55.0,31.6,100,59,15,29.26,29.15,10,2,10,0.00
2014-7-3,78.4,72.3,66.7,72.0,46.1,32.6,100,46,21,29.41,29.26,13,3,13,0.00
2014-7-4,80.2,68.4,57.9,64.0,46.0,31.3,100,55,21,29.56,29.41,10,2,10,0.00
2014-7-5,84.2,68.9,53.6,65.9,43.4,31.6,100,52,15,29.59,29.41,11,2,11,0.00
2014-7-6,87.4,73.9,59.0,62.5,45.6,31.6,100,49,15,29.41,29.26,14,4,14,0.00
2014-7-7,90.3,80.0,67.3,67.5,42.9,30.3,96,34,12,29.29,29.15,21,4,21,0.00
2014-7-8,88.7,81.5,75.4,56.4,41.2,31.6,45,26,15,29.21,29.12,25,5,25,0.00
2014-7-9,87.3,77.3,67.5,73.6,51.2,31.6,100,53,15,29.29,29.21,13,2,14,0.04
2014-7-10,87.6,74.2,61.3,68.9,50.0,31.6,100,56,15,29.41,29.29,11,2,11,0.00
2014-7-11,90.9,75.8,62.4,71.4,49.4,30.3,100,54,12,29.47,29.38,9,2,9,0.00
2014-7-12,91.2,77.1,62.2,69.1,49.9,30.3,100,53,12,29.47,29.32,8,2,8,0.00
2014-7-13,93.0,82.1,70.0,70.4,47.4,30.3,100,41,12,29.35,29.21,13,3,13,0.00
2014-7-14,86.2,76.5,70.3,77.7,65.6,35.7,100,76,18,29.26,29.12,13,2,24,2.13
2014-7-15,79.3,72.7,62.2,72.0,51.6,31.3,100,59,21,29.23,29.12,12,3,12,0.12
2014-7-16,76.5,65.1,53.8,62.5,46.1,31.7,100,60,21,29.29,29.23,8,1,8,0.00
2014-7-17,79.7,67.2,56.3,66.4,47.9,31.4,100,62,21,29.41,29.29,6,1,6,0.00
2014-7-18,69.8,64.0,58.6,67.1,60.3,44.2,100,90,42,29.44,29.38,10,1,10,0.35
2014-7-19,77.5,69.2,64.2,71.2,64.9,57.5,100,88,51,29.41,29.29,8,2,8,0.20
2014-7-20,86.9,75.7,69.1,74.3,62.3,32.3,100,72,15,29.35,29.26,9,3,9,0.24
2014-7-21,91.0,77.3,68.2,75.8,59.8,30.3,100,68,12,29.41,29.29,8,2,8,0.00
2014-7-22,92.7,79.6,69.1,77.6,59.8,30.3,100,65,12,29.41,29.32,8,2,8,0.00
2014-7-23,90.3,78.6,70.2,79.0,63.1,34.9,100,70,15,29.35,29.21,10,2,10,0.75
2014-7-24,77.2,69.9,63.9,71.8,62.9,32.6,100,84,21,29.32,29.21,10,2,11,0.04
2014-7-25,80.4,68.7,60.6,66.9,53.2,32.6,100,69,21,29.38,29.26,10,2,10,0.00
2014-7-26,86.2,74.2,62.1,67.6,52.6,31.6,100,58,15,29.32,29.18,11,2,11,0.00
2014-7-27,82.4,74.4,68.5,81.0,70.3,42.0,100,89,24,29.26,29.03,26,4,26,1.69
2014-7-28,74.1,68.4,62.4,69.6,57.2,34.0,100,75,24,29.29,29.12,14,2,14,0.00
2014-7-29,73.8,63.3,55.2,62.4,48.9,31.6,100,69,24,29.35,29.26,10,2,10,0.00
2014-7-30,81.1,67.6,54.7,65.2,48.4,32.6,100,63,18,29.38,29.32,10,2,10,0.00
2014-7-31,84.7,70.8,58.6,66.4,49.9,31.6,100,62,15,29.38,29.35,8,2,8,0.00
2014-8-1,87.3,72.9,61.0,72.2,52.1,31.6,100,62,15,29.38,29.29,11,1,11,0.00
2014-8-2,84.7,71.7,63.7,72.0,53.8,31.6,100,64,15,29.38,29.32,13,2,13,0.00
2014-8-3,83.8,69.7,58.6,70.2,51.8,32.6,100,67,18,29.44,29.35,8,2,9,0.00
2014-8-4,86.0,71.9,60.4,72.6,51.9,31.6,100,64,15,29.41,29.32,10,2,10,0.00
2014-8-5,86.5,73.0,60.3,70.7,51.9,31.6,100,62,15,29.38,29.29,8,1,8,0.00
2014-8-6,86.4,76.0,65.8,73.4,56.0,31.7,100,62,15,29.29,29.23,13,2,13,0.00
2014-8-7,84.9,74.7,66.6,72.2,52.0,31.6,100,56,15,29.35,29.26,11,3,11,0.00
2014-8-8,73.2,70.3,65.8,73.2,65.5,40.7,100,89,33,29.35,29.26,11,4,11,0.24
2014-8-9,82.4,75.1,70.0,78.6,70.7,59.8,100,88,48,29.32,29.23,8,2,8,0.08
2014-8-10,81.9,74.6,72.0,79.0,72.7,61.3,100,95,51,29.29,29.21,10,4,10,1.61
2014-8-11,82.4,75.1,72.1,77.0,71.8,60.8,100,91,48,29.26,29.12,10,3,10,0.43
2014-8-12,83.3,74.8,64.6,75.9,57.7,32.6,100,65,18,29.23,29.12,17,3,17,0.00
2014-8-13,77.4,66.9,59.7,64.8,53.1,32.6,100,71,21,29.35,29.23,9,1,9,0.00
2014-8-14,82.2,68.7,57.9,70.5,55.3,33.2,100,73,18,29.35,29.23,13,2,13,0.00
2014-8-15,81.7,69.6,62.4,69.4,55.3,32.6,100,72,18,29.35,29.26,10,1,10,0.00
2014-8-16,82.0,69.7,55.9,73.3,53.8,33.4,100,68,18,29.32,29.26,8,2,8,0.00
2014-8-17,79.3,72.6,68.9,75.4,70.8,59.2,100,95,51,29.29,29.18,10,3,10,0.28
2014-8-18,81.1,74.1,70.7,77.2,71.6,60.5,100,93,51,29.18,29.09,11,3,11,0.20
2014-8-19,87.6,75.8,68.2,77.1,63.2,33.6,100,75,15,29.21,29.12,9,2,9,0.00
2014-8-20,89.6,75.5,69.3,75.3,66.7,43.2,100,82,21,29.35,29.15,10,3,15,1.14
2014-8-21,87.1,74.7,66.0,76.5,68.3,50.8,100,85,30,29.38,29.29,15,3,15,0.47
2014-8-22,90.5,78.7,70.5,81.5,67.3,43.9,100,76,21,29.35,29.21,13,2,13,0.31
2014-8-23,92.1,78.4,70.0,80.2,66.5,30.5,100,77,12,29.32,29.18,8,1,8,0.08
2014-8-24,91.6,79.9,73.0,79.0,62.0,30.3,100,68,12,29.29,29.21,9,1,9,0.00
2014-8-25,88.9,78.5,72.1,73.1,61.8,42.0,100,65,21,29.38,29.29,9,3,9,0.00
2014-8-26,87.6,75.7,66.2,72.2,55.2,31.6,100,64,15,29.44,29.32,9,2,9,0.00
2014-8-27,90.5,75.4,63.3,77.0,59.0,30.3,100,69,12,29.41,29.29,8,2,8,0.00
2014-8-28,87.1,76.6,69.1,77.6,64.6,42.0,100,75,24,29.35,29.26,11,2,11,0.00
2014-8-29,91.2,77.1,67.1,75.0,63.3,43.5,100,70,21,29.35,29.26,14,4,14,0.00
2014-8-30,90.0,79.2,70.5,77.2,58.8,30.3,100,63,12,29.38,29.29,10,2,10,0.12
2014-8-31,81.0,74.3,71.8,75.4,72.4,62.4,100,95,54,29.38,29.29,13,3,13,0.98
2014-9-1,88.2,78.7,73.0,77.6,64.8,33.9,100,70,15,29.35,29.23,17,2,17,0.39
2014-9-2,86.0,76.6,70.9,73.4,66.2,49.4,100,75,30,29.32,29.21,14,2,14,0.43
2014-9-3,84.0,74.5,69.1,75.4,67.0,50.4,100,83,33,29.35,29.26,8,1,9,0.00
2014-9-4,84.7,75.2,68.9,75.6,68.4,51.1,100,83,33,29.41,29.35,15,2,15,0.00
2014-9-5,89.6,77.3,68.2,77.4,62.9,43.0,100,71,21,29.44,29.29,10,2,10,0.00
2014-9-6,86.9,75.0,69.8,77.2,69.3,49.4,100,85,30,29.38,29.26,10,2,10,0.47
2014-9-7,75.9,68.3,61.0,69.6,55.1,32.6,100,70,21,29.44,29.35,9,2,9,0.00
2014-9-8,84.0,69.5,58.6,71.7,58.3,42.0,100,76,24,29.38,29.26,8,1,8,0.00
2014-9-9,86.9,73.7,67.5,72.9,59.9,31.6,100,74,15,29.38,29.26,7,1,7,0.00
2014-9-10,83.7,76.5,66.9,71.8,56.3,42.0,100,58,24,29.29,29.15,15,5,15,0.00
2014-9-11,79.3,74.3,68.0,75.9,66.2,47.4,100,80,36,29.35,29.18,22,3,22,0.83
2014-9-12,68.0,64.6,62.2,68.0,59.0,50.4,100,83,60,29.44,29.35,10,2,10,0.04
2014-9-13,68.4,62.2,53.4,63.9,51.3,30.6,100,73,27,29.53,29.35,12,2,12,0.00
2014-9-14,74.1,59.5,48.7,61.5,47.1,31.6,100,74,24,29.56,29.44,10,1,10,0.00
2014-9-15,77.2,63.6,51.3,66.3,51.2,32.6,100,74,21,29.47,29.32,15,2,15,0.16
2014-9-16,67.5,63.6,59.0,65.1,62.3,52.1,100,96,60,29.38,29.32,9,1,9,0.12
2014-9-17,73.8,61.6,54.5,60.7,49.0,31.4,100,73,24,29.35,29.21,8,1,8,0.00
2014-9-18,75.2,62.6,55.8,64.9,49.4,31.3,100,72,21,29.35,29.26,10,2,10,0.00
2014-9-19,81.0,64.3,51.3,66.9,49.9,32.6,100,72,18,29.41,29.32,11,1,11,0.00
2014-9-20,83.5,71.8,62.1,67.8,51.4,33.2,100,60,18,29.41,29.23,13,2,13,0.00
2014-9-21,83.1,70.4,62.6,72.7,52.9,30.8,100,63,18,29.29,29.09,19,4,19,0.00
2014-9-22,68.9,58.2,49.3,54.5,42.3,30.8,100,63,27,29.50,29.29,9,2,9,0.00
2014-9-23,73.9,57.2,45.1,62.1,44.1,30.9,100,73,24,29.56,29.50,9,2,9,0.00
2014-9-24,79.5,62.1,46.8,59.2,45.2,32.6,100,66,21,29.59,29.50,8,2,10,0.00
2014-9-25,82.2,66.3,53.2,65.8,49.7,32.9,100,67,18,29.56,29.41,8,2,8,0.00
2014-9-26,82.8,67.5,57.6,70.9,51.8,32.6,100,70,18,29.47,29.41,8,1,10,0.00
2014-9-27,83.1,68.3,57.9,70.0,52.3,32.6,100,69,18,29.47,29.35,13,2,13,0.00
2014-9-28,80.8,69.1,59.0,69.8,55.8,33.2,100,73,18,29.41,29.29,9,2,9,0.00
2014-9-29,84.2,70.1,60.4,70.7,53.5,31.6,100,68,15,29.29,29.15,8,1,8,0.00
2014-9-30,84.2,67.1,54.5,69.4,49.5,31.6,100,67,15,29.21,29.12,8,1,8,0.00
2014-10-1,82.9,66.5,57.9,66.1,54.0,32.8,100,76,18,29.26,29.18,8,2,8,0.00
2014-10-2,86.0,70.8,59.4,63.0,48.7,31.6,100,59,15,29.29,29.15,16,4,16,0.00
2014-10-3,74.8,68.5,54.7,68.5,52.9,40.1,100,63,30,29.15,28.97,24,6,24,0.00
2014-10-4,57.4,50.2,41.0,54.7,29.8,19.7,100,50,27,29.15,29.06,18,5,18,0.00
2014-10-5,64.8,51.5,34.5,42.3,32.3,24.0,100,55,27,29.21,29.06,15,4,15,0.00
2014-10-6,66.9,60.7,53.6,60.1,41.3,29.5,100,54,30,29.15,28.97,23,6,23,0.00
2014-10-7,72.0,62.4,53.1,65.7,54.8,45.2,100,79,42,29.15,28.97,16,6,20,0.00
2014-10-8,74.1,62.1,51.6,63.5,47.6,30.6,100,70,24,29.32,29.12,13,2,14,0.00
2014-10-9,69.4,57.4,48.0,61.6,52.2,40.2,100,86,36,29.35,29.23,8,2,8,0.00
2014-10-10,66.7,61.9,58.5,66.7,61.9,58.3,100,100,100,29.23,29.15,8,2,8,0.00
2014-10-11,58.5,56.0,54.0,58.3,55.8,53.0,100,99,90,29.32,29.15,10,2,10,0.00
2014-10-12,75.7,62.8,54.3,69.1,57.0,46.4,100,85,36,29.32,29.18,11,4,11,0.00
2014-10-13,81.1,72.0,66.7,68.5,52.8,32.8,100,61,18,29.26,29.03,20,6,20,0.00
2014-10-14,75.4,67.5,60.1,66.9,55.6,32.9,100,73,24,29.03,28.82,24,6,24,1.61
2014-10-15,61.7,58.0,55.4,56.6,49.3,35.7,100,76,39,29.03,28.97,15,3,15,0.12
2014-10-16,59.5,55.7,53.2,58.8,54.3,48.2,100,95,69,29.09,28.94,12,2,12,0.12
2014-10-17,75.0,62.9,52.3,55.2,41.9,30.8,100,55,24,29.09,28.91,15,5,15,0.04
2014-10-18,62.6,55.0,50.2,50.3,38.6,27.3,100,57,30,29.29,29.03,14,3,14,0.00
2014-10-19,63.1,52.0,44.6,50.0,39.1,26.4,100,68,30,29.41,29.26,9,2,9,0.00
2014-10-20,63.7,50.0,39.2,55.2,41.7,28.4,100,79,30,29.26,29.09,12,2,12,0.00
2014-10-21,57.9,53.7,48.4,56.5,40.7,27.3,100,68,33,29.32,29.12,13,2,13,0.04
2014-10-22,53.4,47.9,39.7,49.2,37.7,28.6,100,71,45,29.47,29.32,8,2,8,0.00
2014-10-23,65.1,53.5,45.7,49.8,36.7,27.3,100,58,30,29.41,29.26,12,2,12,0.00
2014-10-24,67.3,50.7,40.1,55.8,39.5,27.3,100,74,27,29.32,29.21,8,1,8,0.00
2014-10-25,73.0,55.4,40.3,58.9,42.0,31.3,100,70,24,29.23,29.12,8,2,8,0.00
2014-10-26,73.6,58.6,45.5,59.4,43.0,27.5,100,66,24,29.21,29.12,8,1,8,0.00
2014-10-27,85.1,65.9,46.9,45.1,37.5,31.7,84,43,15,29.21,29.09,15,4,15,0.00
2014-10-28,77.7,69.8,53.6,62.3,38.9,32.6,96,37,21,29.26,29.09,17,5,17,0.00
2014-10-29,65.1,55.5,46.8,55.9,40.8,21.5,100,65,27,29.29,29.21,13,3,13,0.04
2014-10-30,56.8,45.0,35.2,48.0,33.4,20.8,100,70,30,29.35,29.21,9,1,9,0.00
2014-10-31,47.3,41.3,37.6,47.3,41.3,36.5,100,100,90,29.23,29.06,22,2,22,0.28
2014-11-1,39.4,36.7,33.6,38.1,31.0,19.2,100,83,48,29.50,29.15,13,4,13,0.35
2014-11-2,50.9,36.2,27.0,34.2,23.7,15.4,100,66,33,29.65,29.47,10,2,10,0.00
2014-11-3,69.4,47.8,28.9,34.0,27.7,18.2,100,54,27,29.59,29.41,10,3,10,0.00
2014-11-4,67.5,58.2,42.4,33.7,27.7,18.5,45,31,27,29.44,29.26,11,3,15,0.00
2014-11-5,61.5,54.4,51.3,55.0,48.2,22.1,100,86,27,29.41,29.23,9,2,9,1.26
2014-11-6,58.1,52.3,44.1,55.8,40.6,24.9,100,69,36,29.26,29.06,22,6,22,0.12
2014-11-7,48.7,41.7,33.1,40.3,27.6,16.2,100,60,33,29.35,29.21,14,4,14,0.00
2014-11-8,59.9,45.8,30.9,37.9,28.5,21.4,100,59,27,29.21,29.03,13,4,13,0.00
2014-11-9,59.2,47.7,37.8,39.0,28.5,19.8,100,50,27,29.23,29.12,8,2,8,0.00
2014-11-10,70.2,52.9,34.3,41.9,33.8,27.6,100,58,27,29.21,29.03,14,4,14,0.00
2014-11-11,72.7,62.4,45.0,61.2,35.8,22.3,100,42,24,29.18,29.00,20,6,20,0.16
2014-11-12,44.8,38.1,36.7,44.6,27.0,18.9,100,66,48,29.41,29.18,15,4,15,0.04
2014-11-13,36.7,32.6,27.0,27.0,16.0,8.5,81,50,45,29.47,29.35,13,5,13,0.00
2014-11-14,32.0,27.4,20.7,13.1,9.6,5.4,57,47,45,29.53,29.44,9,3,10,0.04
2014-11-15,40.1,30.0,16.9,19.7,15.0,7.0,100,57,39,29.59,29.35,12,3,12,0.04
2014-11-16,44.2,40.3,36.3,41.7,27.7,14.7,100,66,36,29.38,29.00,12,4,12,0.39
2014-11-17,41.2,37.5,32.5,41.2,37.1,26.2,100,99,81,29.00,28.88,17,5,17,0.79
2014-11-19,49.1,47.0,44.6,21.3,20.0,18.9,36,34,33,0.00,0.00,0,0,0,0.79
2014-11-20,44.6,34.9,25.3,22.4,14.8,8.8,87,44,36,0.00,0.00,0,0,0,0.79
2014-11-21,44.1,29.2,18.1,24.3,14.9,6.8,100,59,36,0.00,0.00,0,0,0,0.79
2014-11-22,63.3,47.7,27.9,33.0,21.1,9.3,45,35,27,0.00,0.00,0,0,0,0.79
2014-11-23,63.0,53.7,43.3,60.0,38.1,18.2,100,60,30,0.00,0.00,0,0,0,0.79
2014-11-24,68.0,58.8,45.9,55.1,34.9,20.4,78,42,27,0.00,0.00,0,0,0,0.79
2014-11-25,53.2,44.2,32.5,39.8,22.6,14.7,100,45,30,0.00,0.00,0,0,0,0.00
2014-11-26,48.4,39.7,34.9,31.9,24.3,15.4,87,57,33,0.00,0.00,0,0,0,0.00
2014-11-27,36.0,33.5,30.0,35.4,23.8,14.1,100,70,51,0.00,0.00,0,0,0,0.00
2014-11-28,39.4,33.2,27.5,16.5,13.4,9.0,54,44,39,0.00,0.00,0,0,0,0.00
2014-11-29,59.2,49.2,32.2,30.4,23.2,13.1,45,36,27,0.00,0.00,0,0,0,0.00
2014-11-30,67.5,63.2,56.8,33.7,31.5,28.4,36,30,27,0.00,0.00,0,0,0,0.00
2014-12-1,65.8,51.7,38.5,55.2,38.9,32.6,100,72,30,0.00,0.00,0,0,0,0.24
2014-12-2,50.0,43.0,38.5,50.0,43.0,38.5,100,100,100,0.00,0.00,0,0,0,0.08
2014-12-3,48.9,40.9,32.7,48.9,39.7,32.6,100,96,81,0.00,0.00,0,0,0,0.00
2014-12-4,43.2,37.2,31.6,43.0,37.2,31.6,100,100,100,0.00,0.00,0,0,0,0.39
2014-12-5,62.1,53.8,43.3,60.6,51.6,43.2,100,93,66,0.00,0.00,0,0,0,0.55
2014-12-6,61.2,50.0,41.2,59.2,43.8,26.1,100,81,54,0.00,0.00,0,0,0,0.28
2014-12-7,48.0,41.5,37.8,33.3,22.3,16.7,75,48,33,0.00,0.00,0,0,0,0.00
2014-12-8,51.6,44.4,38.7,23.5,19.9,16.0,48,38,33,0.00,0.00,0,0,0,0.00
2014-12-9,47.3,41.4,38.5,39.9,33.7,17.9,100,78,33,0.00,0.00,0,0,0,0.04
2014-12-10,39.0,37.1,34.5,38.8,24.1,13.8,100,62,39,0.00,0.00,0,0,0,0.00
2014-12-11,34.5,33.8,33.3,14.6,14.0,13.1,45,44,42,0.00,0.00,0,0,0,0.00
2014-12-14,43.0,42.1,41.5,35.2,30.1,26.1,78,63,51,0.00,0.00,0,0,0,0.00
2014-12-15,56.7,48.4,41.5,35.5,26.1,22.0,78,43,27,0.00,0.00,0,0,0,0.00
2014-12-16,57.2,50.2,42.1,49.5,38.0,25.7,87,64,33,0.00,0.00,0,0,0,0.04
2014-12-17,42.1,35.7,27.9,41.0,28.9,17.1,100,79,48,0.00,0.00,0,0,0,0.00
2014-12-18,35.4,32.0,26.8,29.1,21.3,16.1,100,67,51,0.00,0.00,0,0,0,0.00
2014-12-19,38.1,32.8,27.1,23.3,15.9,11.4,84,50,39,0.00,0.00,0,0,0,0.00
2014-12-20,37.9,32.1,27.0,26.8,21.8,15.1,93,68,48,0.00,0.00,0,0,0,0.00
2014-12-21,46.9,32.8,20.8,29.8,21.3,14.9,100,69,33,0.00,0.00,0,0,0,0.00
2014-12-22,59.4,47.6,33.8,33.9,26.7,17.9,87,46,33,0.00,0.00,0,0,0,0.00
2014-12-23,61.9,57.5,54.7,59.2,51.7,28.3,100,83,36,0.00,0.00,0,0,0,1.34
2014-12-24,66.6,55.2,42.8,58.5,47.6,30.7,100,78,36,0.00,0.00,0,0,0,0.12
2014-12-25,46.4,40.4,30.6,35.1,27.9,19.8,100,63,42,0.00,0.00,0,0,0,0.00
2014-12-26,58.3,40.8,27.5,37.9,27.8,19.4,100,68,27,0.00,0.00,0,0,0,0.00
2014-12-27,59.4,52.0,43.5,31.1,26.8,20.1,60,38,27,0.00,0.00,0,0,0,0.00
2014-12-28,53.2,43.6,37.4,50.5,42.2,28.9,100,96,39,0.00,0.00,0,0,0,0.12
2014-12-29,39.6,37.2,33.4,37.4,29.1,17.1,100,76,45,0.00,0.00,0,0,0,0.00
2014-12-30,39.4,31.4,24.6,26.7,17.8,8.5,100,59,39,0.00,0.00,0,0,0,0.00
2014-12-31,33.3,25.0,19.4,22.0,12.9,5.7,100,63,45,0.00,0.00,0,0,0,0.00
2015-1-1,41.4,30.0,17.2,22.0,15.1,6.8,100,58,39,0.00,0.00,0,0,0,0.00
2015-1-2,41.5,39.3,36.9,33.6,20.8,14.7,78,48,39,0.00,0.00,0,0,0,0.00